South Bound Brook, New Jersey
Current Conditions -  °F | °C
As of 3:53 PM on Tuesday 25 Nov 2014 (Local Time) from KSMQ Reporting Station
Clear Clear  
Wind Chill: 53°   Ceiling: Unl
Heat Index: 53°   Visibility: 10mi
Dew Point: 27°   Wind: 3mph
Humidity: 37%   Direction: 250°WSW
Pressure: 30"   Gusts: NA
Location:  40.55°N, 74.53°W
Report Text: KSMQ 252053Z AUTO 25003KT 10SM CLR 12/M03 A3000 RMK AO2 SLP158 T01171028 53003
Loading
Personal Weather Stations






























Interactive Weather Map New forecast layout! Learn more

10-Day Weather Forecast

Advertisements
Track Severe Weather on mobile